EGKKTBPB

Guest
Details From EGKK - London Gatwick
To TBPB - Barbados - Grantley Adams Intl
Flight Number -
Tags Decoded
Created
Modified
Stats Distance 3,652 nm / 6,764 km
Max Altitude 0 ft / 0 m
Waypoints 4
Social Downloads 3
Likes 0
Share VATSIM

Download

Looking for another format? Having issues loading an existing format? Contact us
Advertisement - Login to hide

Notes

Decoded

Route

EGKK SAM GAPLI TBPB

ID Type Via Altitude Latitude Longitude Leg Dist Tot Dist Heading (true) Name
O EGKK APT - 0 ft / 0 m 51.14691˚ -0.21257˚ - 0 nm - -
SAM VOR - 0 ft / 0 m 50.95528˚ -1.34500˚ 44 nm 44 nm 255° / 254° SOUTHAMPTON VOR-DME
GAPLI FIX - 0 ft / 0 m 50.00000˚ -8.00000˚ 260 nm 304 nm 260° / 255° -
O TBPB APT - 0 ft / 0 m 13.07091˚ -59.50749˚ 3347 nm 3652 nm 247° / 217° -

Altitude Profile

Advertisement - Login to hide

Weather


0- 5 10 15 20 25 30 35+ Temperature / ° C

Clouds and Precipitation
Forecast for 2017-12-17 06:00 UTC. Updated an hour ago

Ground ~20,000 ft ~40,000 ft Winds

EGKK

Details ICAO EGKK (LGW)
Name London Gatwick
Region United Kingdom
Timezone Europe/London (UTC+0.0)
Stats Elevation 196 ft / 60 m (AMSL)
Location 51.148753° -0.192472°
Runways 2
Magnetic Variation 0.431° W

METAR

EGKK 170620Z 19002KT 3300 BR BKN008 M01/M01 Q1024

Decode

TAF

TAF EGKK 170500Z 1706/1812 VRB03KT 3500 BR NSC PROB40 1706/1710 0300 FG FZFG VV/// BECMG 1710/1713 24010KT 8000 NSW BKN040 PROB40 TEMPO 1710/1713 BKN006 TEMPO 1713/1716 -RADZ BKN008 PROB40 TEMPO 1714/1716 4000 RADZ BKN004 BECMG 1716/1719 -RADZ BKN008 TEMPO 1716/1721 4000 RADZ BKN004 BECMG 1722/1801 33008KT 9999 NSW FEW030

Decode

Departure Runways

ID Width Length Bearing (true) Bearing (mag) Surface Threshold Offset Overrun Length
08L 148 ft / 45 m 8,377 ft / 2,553 m 77.69° 78.12° Asphalt 1,053 ft / 321 m 0 ft / 0 m
08R 148 ft / 45 m 10,341 ft / 3,152 m 77.59° 78.02° Asphalt 1,289 ft / 393 m 0 ft / 0 m
26L 148 ft / 45 m 10,341 ft / 3,152 m 257.63° 258.06° Asphalt 879 ft / 268 m 600 ft / 183 m
26R 148 ft / 45 m 8,377 ft / 2,553 m 257.71° 258.14° Asphalt 1,365 ft / 416 m 0 ft / 0 m

TBPB

Details ICAO TBPB (BGI)
Name Barbados/Grantley Adams Intl
Region Barbados
Timezone America/Barbados (UTC-4.0)
Stats Elevation 168 ft / 51 m (AMSL)
Location 13.074614° -59.492206°
Runways 1
Magnetic Variation 15.613° W

METAR

TBPB 170600Z 08018KT 8000 -SHRA BKN014 25/23 Q1013 NOSIG

Decode

TAF

Not found

Destination Runways

ID Width Length Bearing (true) Bearing (mag) Surface Threshold Offset Overrun Length
09 148 ft / 45 m 11,924 ft / 3,635 m 75.84° 91.45° Asphalt 0 ft / 0 m 174 ft / 53 m
27 148 ft / 45 m 11,924 ft / 3,635 m 255.85° 271.46° Asphalt 0 ft / 0 m 0 ft / 0 m

Approach Navaids

Runway Type Ident Frequency Range Bearing (true) Bearing (mag) Slope Elevation
09 Localiser IBGI 110.10 MHz 18 nm / 33 km 75.97° 91.59° - 168 ft / 51 m (AMSL)
09 Glidescope IBGI 110.10 MHz 10 nm / 19 km 75.85° 91.46° 3.00° 168 ft / 51 m (AMSL)

Popular Alternatives